Time;durP1;ratioP1;P1;durP2;ratioP2;P2;SDS_P1;SDS_P2;PMS_P1;PMS_P2;Temp;Humidity;BMP_temperature;BMP_pressure;BME280_temperature;BME280_humidity;BME280_pressure;Samples;Min_cycle;Max_cycle;Signal;HPM_P1;HPM_P2
2024/03/01 00:00:28;;;;;;;;;7.00;6.00;;;;;17.38;48.35;100793.75;146629;600;46916;-68
2024/03/01 00:03:22;;;;;;;;;9.00;7.00;;;;;17.38;48.23;100795.50;146631;579;46020;-68
2024/03/01 00:06:24;;;;;;;;;7.00;5.67;;;;;17.37;48.14;100810.34;146628;580;46012;-68
2024/03/01 00:09:29;;;;;;;;;6.00;6.00;;;;;17.34;48.77;100832.97;146629;575;47027;-71
2024/03/01 00:12:28;;;;;;;;;7.33;6.67;;;;;17.34;49.44;100819.87;146627;597;45026;-68
2024/03/01 00:15:35;;;;;;;;;7.00;6.00;;;;;17.38;49.60;100791.12;146633;573;46010;-67
2024/03/01 00:18:36;;;;;;;;;9.00;7.00;;;;;17.37;50.22;100802.47;146624;650;47016;-69
2024/03/01 00:21:47;;;;;;;;;12.33;8.67;;;;;17.36;50.06;100802.47;146629;721;46020;-70
2024/03/01 00:24:50;;;;;;;;;8.67;7.00;;;;;17.34;50.40;100810.28;146621;571;47017;-70
2024/03/01 00:27:51;;;;;;;;;10.33;8.33;;;;;17.28;50.20;100778.66;146632;650;46010;-68
2024/03/01 00:30:45;;;;;;;;;6.67;6.33;;;;;17.30;49.95;100763.88;146625;625;46016;-73
2024/03/01 00:33:40;;;;;;;;;7.67;6.00;;;;;17.27;49.46;100769.03;146626;613;46012;-72
2024/03/01 00:36:53;;;;;;;;;6.67;5.00;;;;;17.27;50.26;100758.56;146613;650;46914;-74
2024/03/01 00:39:34;;;;;;;;;10.75;6.50;;;;;17.21;49.94;100746.19;146705;565;47023;-73
2024/03/01 00:42:33;;;;;;;;;6.00;6.00;;;;;17.23;50.45;100735.75;146622;591;46943;-73
2024/03/01 00:45:36;;;;;;;;;9.75;7.00;;;;;17.14;50.28;100717.19;146630;598;46010;-73
2024/03/01 00:48:31;;;;;;;;;8.25;7.25;;;;;17.22;50.86;100734.84;146627;701;45917;-72
2024/03/01 00:51:37;;;;;;;;;9.33;5.67;;;;;17.15;51.19;100714.59;146626;577;46020;-69
2024/03/01 00:54:38;;;;;;;;;9.00;6.33;;;;;17.17;51.88;100735.59;146623;584;46012;-69
2024/03/01 00:57:34;;;;;;;;;7.00;5.00;;;;;17.13;51.85;100676.09;146630;690;45020;-70
2024/03/01 01:00:45;;;;;;;;;7.00;5.67;;;;;15.99;52.08;100486.56;146622;597;46016;-71
2024/03/01 01:03:42;;;;;;;;;7.33;6.33;;;;;17.06;52.66;100690.78;146626;574;46020;-68
2024/03/01 01:06:40;;;;;;;;;9.00;7.00;;;;;16.99;53.52;100712.44;146628;605;46012;-69
2024/03/01 01:09:35;;;;;;;;;10.00;7.00;;;;;16.92;53.65;100715.78;146627;640;46035;-67
2024/03/01 01:12:51;;;;;;;;;8.33;7.00;;;;;16.82;55.55;100723.41;146625;624;46914;-68
2024/03/01 01:15:43;;;;;;;;;6.00;5.67;;;;;16.70;57.42;100693.31;146632;652;46010;-72
2024/03/01 01:18:52;;;;;;;;;6.67;6.00;;;;;16.64;58.39;100683.63;146627;625;46012;-72
2024/03/01 01:21:52;;;;;;;;;9.00;7.25;;;;;16.59;58.78;100664.28;146633;568;46020;-71
2024/03/01 01:25:01;;;;;;;;;6.33;5.67;;;;;16.46;59.63;100641.25;146627;587;46016;-70
2024/03/01 01:27:53;;;;;;;;;8.50;6.50;;;;;16.35;58.76;100634.00;146628;614;46010;-73
2024/03/01 01:31:12;;;;;;;;;7.00;6.00;;;;;16.19;55.54;100591.69;146626;588;46012;-74
2024/03/01 01:34:05;;;;;;;;;5.33;4.00;;;;;16.36;53.59;100608.72;146629;592;46010;-75
2024/03/01 01:36:58;;;;;;;;;9.33;7.00;;;;;16.44;53.46;100599.31;146624;571;47015;-77
2024/03/01 01:40:05;;;;;;;;;;;;;;;;;;;;;
2024/03/01 01:43:02;;;;;;;;;9.75;8.25;;;;;16.51;55.59;100624.81;146640;575;46016;-75
2024/03/01 01:46:09;;;;;;;;;9.00;8.00;;;;;16.49;53.65;100636.09;146647;569;45020;-76
2024/03/01 01:49:03;;;;;;;;;6.67;5.67;;;;;16.45;55.27;100650.84;146649;583;45918;-72
2024/03/01 01:52:02;;;;;;;;;7.33;5.67;;;;;16.38;56.68;100641.03;146651;630;46010;-81
2024/03/01 01:54:55;;;;;;;;;8.33;6.33;;;;;16.37;59.50;100639.28;146645;574;45915;-69
2024/03/01 01:58:00;;;;;;;;;8.50;6.75;;;;;16.32;62.71;100630.41;146644;722;45020;-72
2024/03/01 02:01:01;;;;;;;;;7.00;7.00;;;;;16.30;62.87;100626.87;146646;579;45016;-75
2024/03/01 02:04:06;;;;;;;;;8.00;7.00;;;;;16.33;61.30;100620.00;146651;593;45020;-71
2024/03/01 02:06:59;;;;;;;;;8.67;7.67;;;;;16.33;62.74;100617.38;146646;588;45915;-69
2024/03/01 02:09:54;;;;;;;;;2.33;2.00;;;;;16.33;61.76;100622.59;146648;598;45020;-71
2024/03/01 02:13:11;;;;;;;;;10.50;7.00;;;;;16.37;61.11;100611.38;146644;569;45016;-69
2024/03/01 02:16:15;;;;;;;;;8.67;6.00;;;;;16.39;61.39;100591.38;146653;666;46021;-71
2024/03/01 02:19:20;;;;;;;;;5.67;5.00;;;;;16.44;60.00;100590.59;146643;595;45012;-72
2024/03/01 02:22:30;;;;;;;;;8.33;7.00;;;;;16.46;61.07;100591.53;146649;626;45011;-74
2024/03/01 02:25:23;;;;;;;;;12.67;8.67;;;;;16.46;61.29;100604.59;146646;575;45914;-75
2024/03/01 02:28:18;;;;;;;;;10.75;6.00;;;;;16.43;60.08;100594.06;146646;563;45031;-68
2024/03/01 02:31:26;;;;;;;;;9.00;7.00;;;;;16.38;60.86;100607.88;146645;565;45012;-77
2024/03/01 02:34:31;;;;;;;;;4.00;4.00;;;;;16.25;62.32;100589.22;146652;589;45010;-81
2024/03/01 02:37:30;;;;;;;;;12.00;8.00;;;;;16.22;62.26;100594.38;146635;655;45017;-85
2024/03/01 02:40:24;;;;;;;;;10.67;8.00;;;;;16.22;62.79;100604.84;146622;571;46020;-77
2024/03/01 02:43:23;;;;;;;;;9.25;7.00;;;;;16.18;61.82;100601.28;146612;707;48914;-74
2024/03/01 02:46:29;;;;;;;;;10.25;7.25;;;;;16.16;61.19;100595.09;146624;569;46011;-70
2024/03/01 02:49:32;;;;;;;;;8.33;7.00;;;;;16.13;60.31;100559.28;146616;682;47012;-69
2024/03/01 02:52:28;;;;;;;;;9.00;7.75;;;;;16.16;59.00;100558.47;146622;576;46010;-69
2024/03/01 02:55:44;;;;;;;;;11.33;9.00;;;;;16.21;58.39;100561.22;146617;576;46016;-68
2024/03/01 02:58:58;;;;;;;;;6.00;6.00;;;;;16.29;58.72;100557.97;146622;571;46010;-67
2024/03/01 03:02:00;;;;;;;;;8.00;6.00;;;;;16.34;56.77;100553.72;146618;579;46016;-68
2024/03/01 03:05:08;;;;;;;;;7.33;7.00;;;;;16.42;56.79;100556.53;146624;570;46010;-68
2024/03/01 03:08:12;;;;;;;;;9.00;6.00;;;;;16.36;54.18;100561.63;146616;673;47014;-68
2024/03/01 03:11:20;;;;;;;;;6.33;6.00;;;;;16.53;52.90;100570.75;146623;569;46020;-69
2024/03/01 03:14:18;;;;;;;;;8.33;7.00;;;;;16.64;52.40;100578.91;146620;586;46015;-69
2024/03/01 03:17:05;;;;;;;;;9.00;7.00;;;;;16.68;51.41;100567.62;146706;587;46022;-71
2024/03/01 03:20:00;;;;;;;;;10.67;7.00;;;;;16.76;51.43;100573.06;146624;589;46016;-68
2024/03/01 03:23:08;;;;;;;;;9.00;8.00;;;;;16.83;52.49;100573.28;146630;666;46012;-69
2024/03/01 03:26:07;;;;;;;;;10.25;9.00;;;;;16.84;51.15;100571.53;146624;573;47915;-69
2024/03/01 03:29:24;;;;;;;;;11.00;6.33;;;;;16.86;50.66;100575.09;146630;569;46010;-74
2024/03/01 03:32:25;;;;;;;;;8.33;6.00;;;;;16.88;50.92;100569.88;146626;590;46016;-72
2024/03/01 03:35:32;;;;;;;;;9.50;8.50;;;;;16.84;50.54;100572.41;146627;647;46020;-71
2024/03/01 03:38:29;;;;;;;;;9.33;7.33;;;;;16.84;51.00;100559.31;146625;586;46016;-67
2024/03/01 03:41:24;;;;;;;;;7.67;6.67;;;;;16.77;51.24;100572.25;146632;595;46010;-68
2024/03/01 03:44:27;;;;;;;;;9.67;6.00;;;;;16.78;50.86;100566.16;146623;639;46016;-70
2024/03/01 03:47:24;;;;;;;;;10.00;9.25;;;;;16.76;51.26;100567.84;146627;628;47010;-74
2024/03/01 03:50:26;;;;;;;;;8.00;5.00;;;;;16.69;52.38;100543.22;146618;612;47012;-69
2024/03/01 03:53:39;;;;;;;;;8.25;7.25;;;;;16.79;52.06;100553.09;146628;578;47020;-71
2024/03/01 03:56:35;;;;;;;;;6.75;6.00;;;;;16.76;51.25;100532.09;146622;602;46915;-72
2024/03/01 03:59:28;;;;;;;;;9.00;8.00;;;;;16.71;50.55;100535.41;146628;593;46010;-69
2024/03/01 04:02:30;;;;;;;;;9.25;8.50;;;;;16.74;50.46;100520.66;146621;665;46016;-72
2024/03/01 04:05:17;;;;;;;;;8.00;8.00;;;;;16.65;49.82;100496.00;146713;564;46022;-75
2024/03/01 04:08:13;;;;;;;;;6.00;3.67;;;;;16.79;49.92;100495.50;146628;613;46012;-71
2024/03/01 04:11:06;;;;;;;;;7.33;6.00;;;;;16.81;48.85;100501.63;146634;570;46010;-71
2024/03/01 04:14:11;;;;;;;;;7.00;5.67;;;;;16.90;49.06;100497.47;146629;629;46012;-77
2024/03/01 04:17:17;;;;;;;;;9.00;7.67;;;;;16.99;48.27;100509.03;146630;594;46020;-77
2024/03/01 04:20:24;;;;;;;;;5.33;5.33;;;;;17.06;48.61;100521.41;146628;567;46013;-76
2024/03/01 04:23:37;;;;;;;;;8.67;7.00;;;;;17.11;49.28;100523.25;146630;564;46010;-77
2024/03/01 04:26:30;;;;;;;;;6.50;6.00;;;;;17.13;48.58;100542.47;146628;668;46015;-82
2024/03/01 04:29:23;;;;;;;;;7.67;6.00;;;;;17.13;49.12;100511.03;146631;680;46020;-76
2024/03/01 04:32:17;;;;;;;;;10.00;6.33;;;;;16.99;48.78;100488.06;146625;591;46914;-81
2024/03/01 04:35:12;;;;;;;;;12.00;10.75;;;;;17.08;50.10;100500.50;146629;694;46021;-74
2024/03/01 04:38:09;;;;;;;;;8.00;8.00;;;;;17.07;50.03;100504.84;146624;564;45016;-80
2024/03/01 04:41:11;;;;;;;;;8.67;7.00;;;;;17.04;49.47;100491.69;146630;583;46020;-73
2024/03/01 04:44:07;;;;;;;;;9.00;8.50;;;;;17.03;49.88;100492.50;146627;566;46012;-74
2024/03/01 04:46:59;;;;;;;;;8.67;7.67;;;;;16.66;48.71;100427.97;146630;621;46020;-71
2024/03/01 04:50:15;;;;;;;;;7.33;5.33;;;;;16.93;49.61;100466.97;146622;609;46014;-72
2024/03/01 04:53:18;;;;;;;;;9.00;6.00;;;;;17.04;48.98;100496.91;146632;631;46012;-73
2024/03/01 04:56:17;;;;;;;;;8.00;5.33;;;;;16.95;47.97;100517.69;146628;659;46015;-75
2024/03/01 04:59:18;;;;;;;;;7.67;6.00;;;;;15.68;48.76;100289.72;146632;571;45021;-71
2024/03/01 05:02:22;;;;;;;;;9.00;7.33;;;;;17.01;49.37;100525.66;146626;563;46012;-69
2024/03/01 05:05:33;;;;;;;;;6.33;4.33;;;;;16.94;48.85;100509.78;146647;640;45021;-69
2024/03/01 05:08:36;;;;;;;;;4.67;4.00;;;;;17.04;48.08;100528.34;146637;566;45016;-71
2024/03/01 05:11:38;;;;;;;;;6.67;6.33;;;;;16.48;48.08;100441.53;146646;572;45020;-69
2024/03/01 05:14:36;;;;;;;;;6.00;5.00;;;;;17.07;48.98;100535.37;146639;563;45034;-68
2024/03/01 05:17:42;;;;;;;;;8.33;5.00;;;;;17.04;49.72;100537.91;146642;577;45020;-69
2024/03/01 05:20:55;;;;;;;;;11.50;8.25;;;;;17.02;49.96;100543.16;146640;669;45014;-68
2024/03/01 05:23:49;;;;;;;;;7.00;7.00;;;;;17.00;50.96;100542.22;146640;564;46010;-69
2024/03/01 05:26:55;;;;;;;;;6.75;6.50;;;;;16.95;51.05;100529.91;146634;569;45017;-68
2024/03/01 05:30:08;;;;;;;;;8.33;7.33;;;;;16.90;50.62;100514.06;146642;602;45030;-71
2024/03/01 05:33:03;;;;;;;;;8.00;6.67;;;;;16.92;51.11;100521.97;146639;631;45016;-71
2024/03/01 05:36:05;;;;;;;;;8.00;6.33;;;;;16.92;50.97;100522.84;146643;608;45020;-69
2024/03/01 05:39:03;;;;;;;;;4.50;3.75;;;;;16.89;51.29;100530.62;146637;573;45016;-71
2024/03/01 05:42:43;;;;;;;;;7.33;5.00;;;;;16.87;51.99;100537.56;146645;636;45010;-71
2024/03/01 05:45:39;;;;;;;;;8.33;7.00;;;;;16.88;52.29;100523.59;146640;581;45016;-70
2024/03/01 05:48:48;;;;;;;;;9.50;7.25;;;;;16.86;51.93;100514.84;146640;569;45021;-71
2024/03/01 05:51:49;;;;;;;;;11.00;9.00;;;;;16.90;51.84;100519.28;146638;564;47012;-70
2024/03/01 05:54:41;;;;;;;;;8.75;7.00;;;;;16.77;51.99;100515.53;146642;584;46023;-70
2024/03/01 05:57:37;;;;;;;;;7.67;7.00;;;;;16.88;52.24;100547.19;146640;578;45016;-75
2024/03/01 06:00:42;;;;;;;;;9.75;7.25;;;;;15.16;52.40;100257.94;146646;677;46010;-72
2024/03/01 06:03:41;;;;;;;;;7.67;7.67;;;;;16.89;52.72;100553.31;146633;564;45017;-70
2024/03/01 06:06:36;;;;;;;;;11.00;7.33;;;;;16.83;52.70;100559.31;146624;569;47035;-70
2024/03/01 06:09:30;;;;;;;;;7.67;7.67;;;;;16.83;53.03;100559.31;146618;607;46016;-69
2024/03/01 06:12:29;;;;;;;;;9.33;8.33;;;;;16.77;53.73;100556.53;146624;608;46021;-69
2024/03/01 06:15:30;;;;;;;;;6.00;4.00;;;;;16.77;53.65;100560.03;146618;672;46016;-69
2024/03/01 06:18:22;;;;;;;;;8.00;6.00;;;;;16.69;54.04;100551.06;146626;650;46012;-74
2024/03/01 06:21:38;;;;;;;;;11.00;8.67;;;;;16.72;53.58;100551.16;146617;612;47940;-72
2024/03/01 06:24:46;;;;;;;;;10.33;9.00;;;;;16.73;54.54;100568.66;146620;599;46020;-69
2024/03/01 06:27:42;;;;;;;;;9.00;8.00;;;;;16.76;54.62;100580.94;146618;574;46017;-70
2024/03/01 06:30:40;;;;;;;;;7.25;6.00;;;;;16.67;54.58;100562.37;146623;614;46010;-70
2024/03/01 06:33:46;;;;;;;;;12.67;9.67;;;;;16.72;55.60;100571.22;146620;615;46016;-73
2024/03/01 06:36:48;;;;;;;;;11.25;9.25;;;;;16.74;55.67;100566.91;146621;609;46020;-69
2024/03/01 06:39:49;;;;;;;;;13.25;10.00;;;;;16.75;57.04;100572.19;146617;683;46016;-74
2024/03/01 06:42:54;;;;;;;;;9.67;8.00;;;;;16.68;56.75;100558.91;146620;569;46027;-74
2024/03/01 06:45:56;;;;;;;;;8.25;8.00;;;;;16.81;56.59;100574.06;146620;563;46012;-80
2024/03/01 06:48:52;;;;;;;;;11.67;9.00;;;;;16.76;56.72;100558.28;146624;707;47010;-79
2024/03/01 06:51:51;;;;;;;;;11.00;8.00;;;;;16.93;56.93;100584.84;146618;826;46012;-83
2024/03/01 06:54:52;;;;;;;;;10.00;8.33;;;;;16.80;57.44;100554.88;146619;622;46020;-82
2024/03/01 06:57:48;;;;;;;;;9.25;7.75;;;;;16.96;56.57;100584.03;146620;639;46012;-78
2024/03/01 07:00:47;;;;;;;;;8.67;7.67;;;;;16.91;57.00;100577.78;146623;585;46010;-78
2024/03/01 07:04:00;;;;;;;;;;;;;;;;;;;;;
2024/03/01 07:07:02;;;;;;;;;15.00;12.50;;;;;16.98;57.60;100604.19;146622;571;46020;-73
2024/03/01 07:10:08;;;;;;;;;9.67;9.67;;;;;16.95;56.81;100606.72;146621;572;46013;-74
2024/03/01 07:13:09;;;;;;;;;14.75;12.00;;;;;16.94;55.43;100610.16;146625;597;46010;-75
2024/03/01 07:16:13;;;;;;;;;10.75;7.75;;;;;16.91;56.04;100599.63;146619;588;46016;-74
2024/03/01 07:19:16;;;;;;;;;14.75;12.00;;;;;16.98;61.63;100608.53;146624;686;46010;-72
2024/03/01 07:22:15;;;;;;;;;14.25;11.25;;;;;16.88;64.68;100610.03;146618;667;46012;-71
2024/03/01 07:25:26;;;;;;;;;15.25;11.00;;;;;14.93;62.05;100300.88;146621;651;46021;-70
2024/03/01 07:28:22;;;;;;;;;13.00;11.00;;;;;16.53;65.05;100604.78;146616;570;46016;-70
2024/03/01 07:31:15;;;;;;;;;14.75;12.00;;;;;16.39;65.60;100603.56;146617;618;46012;-71
2024/03/01 07:34:08;;;;;;;;;10.67;9.33;;;;;16.23;66.79;100618.00;146615;669;46016;-70
2024/03/01 07:37:00;;;;;;;;;15.00;13.00;;;;;16.04;67.80;100613.97;146621;570;46020;-72
2024/03/01 07:39:57;;;;;;;;;13.25;12.00;;;;;15.86;68.65;100624.81;146614;657;46032;-70
2024/03/01 07:42:50;;;;;;;;;9.25;8.25;;;;;15.60;69.41;100610.94;146621;617;46010;-69
2024/03/01 07:45:46;;;;;;;;;8.33;7.33;;;;;15.52;70.57;100640.34;146619;572;46019;-69
2024/03/01 07:48:41;;;;;;;;;9.00;8.00;;;;;15.40;71.11;100659.16;146621;686;46020;-70
2024/03/01 07:51:40;;;;;;;;;7.67;6.00;;;;;15.19;71.14;100651.53;146619;647;46016;-71
2024/03/01 07:54:44;;;;;;;;;4.00;4.00;;;;;15.02;71.94;100654.50;146627;586;46010;-71
2024/03/01 07:57:48;;;;;;;;;5.00;2.33;;;;;14.89;71.52;100674.91;146618;575;47012;-68
2024/03/01 08:00:45;;;;;;;;;4.00;4.00;;;;;14.78;71.60;100680.69;146623;570;47010;-69
2024/03/01 08:03:47;;;;;;;;;5.33;3.67;;;;;14.71;71.34;100678.72;146620;579;46016;-69
2024/03/01 08:06:43;;;;;;;;;4.00;4.00;;;;;14.68;71.39;100693.38;146624;582;46010;-70
2024/03/01 08:09:50;;;;;;;;;4.00;3.00;;;;;14.61;71.83;100702.72;146617;606;46017;-83
2024/03/01 08:12:54;;;;;;;;;3.33;3.00;;;;;14.59;71.18;100713.94;146623;624;46020;-68
2024/03/01 08:15:46;;;;;;;;;1.00;1.00;;;;;14.57;69.76;100715.59;146621;570;46015;-66
2024/03/01 08:18:47;;;;;;;;;0.00;0.00;;;;;14.56;67.88;100686.00;146622;588;46012;-66
2024/03/01 08:22:09;;;;;;;;;1.33;0.67;;;;;14.49;66.75;100676.16;146621;569;47012;-68
2024/03/01 08:25:06;;;;;;;;;0.00;0.00;;;;;14.58;67.62;100691.25;146623;600;46021;-67
2024/03/01 08:28:04;;;;;;;;;2.00;0.00;;;;;14.60;67.91;100700.03;146620;570;46035;-67
2024/03/01 08:31:03;;;;;;;;;0.00;0.00;;;;;14.60;67.85;100700.94;146624;567;46013;-67
2024/03/01 08:34:41;;;;;;;;;1.00;1.00;;;;;14.60;67.25;100692.22;146615;624;46016;-67
2024/03/01 08:37:52;;;;;;;;;;;;;;;;;;;;;
2024/03/01 08:41:09;;;;;;;;;1.00;1.00;;;;;14.52;71.09;100678.91;146621;618;47012;-66
2024/03/01 08:44:05;;;;;;;;;2.00;1.67;;;;;14.42;72.14;100680.25;146621;577;46020;-67
2024/03/01 08:47:01;;;;;;;;;5.33;4.33;;;;;14.30;73.65;100680.75;146619;570;46014;-68
2024/03/01 08:50:47;;;;;;;;;5.00;5.00;;;;;14.19;72.94;100663.81;146625;577;46020;-68
2024/03/01 08:54:19;;;;;;;;;6.33;2.67;;;;;13.34;71.74;100531.31;146619;641;46015;-66
2024/03/01 08:57:33;;;;;;;;;5.00;5.00;;;;;14.08;71.96;100672.97;146621;571;46020;-67
2024/03/01 09:00:57;;;;;;;;;6.00;5.00;;;;;14.07;73.42;100684.22;146618;579;46029;-69
2024/03/01 09:04:22;;;;;;;;;4.00;4.00;;;;;13.93;73.03;100667.22;146625;566;46010;-70
2024/03/01 09:07:43;;;;;;;;;5.25;4.00;;;;;12.22;71.92;100376.13;146622;648;45018;-70
2024/03/01 09:10:50;;;;;;;;;8.50;7.25;;;;;14.02;73.24;100683.19;146622;585;46010;-69
2024/03/01 09:13:46;;;;;;;;;6.00;4.00;;;;;14.02;74.17;100685.81;146622;577;46012;-74
2024/03/01 09:16:51;;;;;;;;;2.67;1.67;;;;;12.41;76.81;100409.81;146623;582;46011;-76
2024/03/01 09:20:04;;;;;;;;;6.67;6.00;;;;;13.90;79.14;100680.13;146623;691;46012;-80
2024/03/01 09:23:21;;;;;;;;;7.00;6.75;;;;;13.69;77.71;100662.84;146621;573;46020;-69
2024/03/01 09:26:30;;;;;;;;;2.00;2.00;;;;;13.72;77.57;100677.72;146622;580;46016;-69
2024/03/01 09:29:44;;;;;;;;;6.50;5.00;;;;;13.71;74.63;100670.75;146616;607;46020;-69
2024/03/01 09:32:45;;;;;;;;;3.75;2.50;;;;;13.71;77.28;100678.56;146617;631;46017;-67
2024/03/01 09:35:37;;;;;;;;;1.33;0.33;;;;;13.72;76.47;100689.03;146621;563;46020;-68
2024/03/01 09:38:37;;;;;;;;;2.67;1.00;;;;;13.72;76.05;100691.63;146620;575;46016;-68
2024/03/01 09:42:19;;;;;;;;;2.33;2.33;;;;;13.60;74.81;100684.22;146623;569;46020;-69
2024/03/01 09:45:47;;;;;;;;;3.00;3.00;;;;;11.80;77.16;100379.63;146708;565;45035;-69
2024/03/01 09:49:35;;;;;;;;;1.00;1.00;;;;;13.64;74.38;100703.47;146624;601;47012;-69
2024/03/01 09:53:16;;;;;;;;;3.00;1.33;;;;;11.49;74.34;100338.53;146628;570;46011;-68
2024/03/01 09:56:35;;;;;;;;;5.00;3.00;;;;;13.66;75.86;100695.72;146616;608;47012;-69
2024/03/01 10:00:20;;;;;;;;;6.00;6.00;;;;;10.47;73.20;100134.53;146627;706;47010;-69
2024/03/01 10:04:05;;;;;;;;;5.00;4.00;;;;;13.61;73.43;100679.91;146615;598;47016;-68
2024/03/01 10:07:43;;;;;;;;;3.75;3.75;;;;;10.58;73.02;100154.00;146625;711;46021;-69
2024/03/01 10:11:15;;;;;;;;;10.25;9.00;;;;;13.58;73.88;100677.19;146617;606;46012;-68
2024/03/01 10:14:40;;;;;;;;;17.25;14.25;;;;;13.64;73.31;100682.62;146624;574;46021;-69
2024/03/01 10:18:35;;;;;;;;;8.00;8.00;;;;;10.39;71.56;100111.75;146614;585;46017;-68
2024/03/01 10:22:03;;;;;;;;;3.75;3.75;;;;;13.38;71.75;100625.22;146623;653;46010;-70
2024/03/01 10:25:41;;;;;;;;;8.00;7.75;;;;;11.95;71.53;100378.50;146615;609;46016;-69
2024/03/01 10:29:26;;;;;;;;;7.00;6.00;;;;;11.94;71.48;100393.22;146623;566;46020;-68
2024/03/01 10:33:17;;;;;;;;;5.50;4.25;;;;;13.66;71.67;100696.62;146615;579;47012;-69
2024/03/01 10:36:46;;;;;;;;;8.00;7.00;;;;;13.66;71.43;100696.62;146626;709;46027;-70
2024/03/01 10:40:20;;;;;;;;;2.00;2.00;;;;;13.66;71.27;100694.00;146617;579;47911;-69
2024/03/01 10:43:43;;;;;;;;;9.75;9.00;;;;;10.50;70.21;100145.91;146626;654;46020;-70
2024/03/01 10:47:26;;;;;;;;;19.00;15.25;;;;;11.93;70.74;100398.34;146609;582;47012;-69
2024/03/01 10:50:40;;;;;;;;;13.25;11.00;;;;;12.08;71.84;100419.75;146607;579;46010;-68
2024/03/01 10:53:49;;;;;;;;;11.00;10.00;;;;;13.66;72.25;100685.31;146604;594;46012;-69
2024/03/01 10:56:49;;;;;;;;;43.50;34.75;;;;;13.64;72.98;100677.41;146609;580;46020;-70
2024/03/01 11:00:14;;;;;;;;;16.50;16.00;;;;;10.56;71.62;100138.41;146606;578;46016;-68
2024/03/01 11:03:57;;;;;;;;;3.75;2.75;;;;;11.80;71.46;100350.16;146608;679;46020;-69
2024/03/01 11:07:40;;;;;;;;;2.33;2.33;;;;;11.45;71.18;100297.69;146613;582;46017;-69
2024/03/01 11:11:01;;;;;;;;;4.67;4.67;;;;;13.57;71.61;100660.66;146617;615;46020;-69
2024/03/01 11:14:04;;;;;;;;;3.67;3.67;;;;;13.54;71.95;100652.75;146614;569;46013;-68
2024/03/01 11:17:04;;;;;;;;;2.67;2.00;;;;;13.55;72.57;100658.84;146616;570;46020;-69
2024/03/01 11:20:21;;;;;;;;;3.33;2.00;;;;;11.64;70.92;100333.09;146613;563;47012;-69
2024/03/01 11:23:42;;;;;;;;;0.33;0.33;;;;;13.50;70.46;100660.41;146618;591;46012;-70
2024/03/01 11:26:49;;;;;;;;;0.00;0.00;;;;;13.46;70.56;100666.28;146615;602;46016;-69
2024/03/01 11:30:21;;;;;;;;;2.00;2.00;;;;;13.48;70.83;100659.44;146620;569;46021;-68
2024/03/01 11:33:34;;;;;;;;;1.00;1.00;;;;;13.50;70.53;100655.19;146614;637;46016;-70
2024/03/01 11:36:57;;;;;;;;;3.00;3.00;;;;;13.54;70.22;100652.75;146619;577;46025;-70
2024/03/01 11:40:23;;;;;;;;;3.67;3.67;;;;;13.58;71.58;100648.53;146614;575;46016;-69
2024/03/01 11:44:19;;;;;;;;;3.33;3.33;;;;;11.80;70.65;100340.66;146618;669;46010;-70
2024/03/01 11:48:10;;;;;;;;;8.75;8.75;;;;;13.69;70.95;100656.75;146612;570;46016;-69
2024/03/01 11:51:43;;;;;;;;;9.25;9.00;;;;;13.74;70.81;100639.59;146618;614;46020;-69
2024/03/01 11:55:19;;;;;;;;;24.75;21.50;;;;;10.79;70.05;100115.09;146610;604;46012;-68
2024/03/01 11:59:01;;;;;;;;;9.00;6.75;;;;;13.73;71.97;100625.66;146612;595;46020;-68
2024/03/01 12:02:21;;;;;;;;;13.75;11.00;;;;;13.78;71.05;100618.91;146611;626;46030;-67
2024/03/01 12:06:09;;;;;;;;;26.25;24.50;;;;;13.83;71.47;100606.03;146607;589;48010;-69
2024/03/01 12:09:54;;;;;;;;;29.25;27.75;;;;;11.92;70.53;100264.06;146602;573;47012;-69
2024/03/01 12:13:18;;;;;;;;;17.25;16.00;;;;;13.55;71.73;100536.38;146611;591;46031;-69
2024/03/01 12:16:32;;;;;;;;;17.00;15.50;;;;;13.95;73.24;100583.00;146606;578;46012;-68
2024/03/01 12:20:13;;;;;;;;;20.00;17.25;;;;;11.46;71.73;100130.72;146607;583;46020;-68
2024/03/01 12:23:48;;;;;;;;;23.75;23.00;;;;;14.00;72.14;100550.16;146605;600;46014;-68
2024/03/01 12:27:08;;;;;;;;;26.50;26.00;;;;;14.02;73.98;100517.22;146607;600;46010;-68
2024/03/01 12:30:28;;;;;;;;;7.00;7.00;;;;;13.95;73.47;100501.31;146600;625;47014;-68
2024/03/01 12:34:06;;;;;;;;;15.00;12.75;;;;;13.82;72.43;100490.47;146615;578;46033;-68
2024/03/01 12:37:44;;;;;;;;;8.00;6.75;;;;;10.69;72.81;99963.47;146605;620;46017;-68
2024/03/01 12:41:16;;;;;;;;;23.75;21.75;;;;;13.74;72.04;100509.31;146615;600;46010;-66
2024/03/01 12:44:45;;;;;;;;;38.50;32.00;;;;;13.68;76.72;100523.00;146603;577;46910;-67
2024/03/01 12:48:27;;;;;;;;;22.00;21.00;;;;;13.54;75.77;100545.03;146608;586;46010;-66
2024/03/01 12:51:56;;;;;;;;;9.00;9.00;;;;;13.39;77.02;100571.41;146605;573;46017;-72
2024/03/01 12:55:30;;;;;;;;;14.00;9.00;;;;;13.37;78.74;100549.66;146617;580;46020;-68
2024/03/01 12:58:53;;;;;;;;;9.25;8.75;;;;;13.36;76.47;100553.06;146610;570;46034;-68
2024/03/01 13:02:50;;;;;;;;;9.00;7.25;;;;;13.40;75.80;100600.13;146614;600;46020;-69
2024/03/01 13:06:00;;;;;;;;;7.75;7.75;;;;;13.48;75.84;100544.81;146609;605;47013;-69
2024/03/01 13:09:19;;;;;;;;;12.00;12.00;;;;;13.53;77.60;100546.78;146615;572;46020;-70
2024/03/01 13:12:24;;;;;;;;;13.50;11.00;;;;;12.24;76.54;100328.56;146602;565;47012;-69
2024/03/01 13:15:55;;;;;;;;;12.25;11.25;;;;;13.49;76.87;100555.31;146608;569;46010;-71
2024/03/01 13:19:40;;;;;;;;;18.25;14.00;;;;;13.40;77.08;100550.66;146606;618;46016;-69
2024/03/01 13:22:48;;;;;;;;;20.25;19.75;;;;;13.38;77.01;100552.28;146606;573;46021;-68
2024/03/01 13:26:11;;;;;;;;;36.25;31.00;;;;;12.37;77.25;100381.94;146605;595;46029;-68
2024/03/01 13:29:31;;;;;;;;;44.50;34.50;;;;;13.37;77.86;100565.28;146607;586;47012;-69
2024/03/01 13:33:12;;;;;;;;;15.00;12.50;;;;;13.45;76.73;100573.38;146603;586;46014;-68
2024/03/01 13:36:29;;;;;;;;;11.75;11.50;;;;;13.38;76.67;100570.53;146609;572;46021;-68
2024/03/01 13:40:22;;;;;;;;;21.75;20.00;;;;;13.46;78.28;100576.03;146607;634;46016;-68
2024/03/01 13:43:39;;;;;;;;;12.00;11.75;;;;;13.34;77.63;100571.25;146610;580;46021;-69
2024/03/01 13:47:21;;;;;;;;;10.50;5.00;;;;;9.54;77.19;99935.47;146600;576;47914;-68
2024/03/01 13:50:53;;;;;;;;;15.25;15.00;;;;;9.81;78.47;100034.13;146613;581;47022;-67
2024/03/01 13:54:19;;;;;;;;;19.75;18.00;;;;;9.22;77.63;99947.91;146606;577;46016;-68
2024/03/01 13:57:20;;;;;;;;;20.00;18.50;;;;;12.80;80.65;100536.13;146608;609;46021;-68
2024/03/01 14:00:24;;;;;;;;;16.00;16.00;;;;;12.78;81.12;100536.09;146604;613;47914;-68
2024/03/01 14:03:17;;;;;;;;;18.75;16.00;;;;;12.82;81.27;100531.91;146607;583;46020;-69
2024/03/01 14:06:41;;;;;;;;;14.75;12.50;;;;;12.84;79.97;100520.72;146606;569;46017;-70
2024/03/01 14:09:37;;;;;;;;;10.50;10.50;;;;;12.81;81.73;100514.53;146608;634;47020;-67
2024/03/01 14:12:40;;;;;;;;;10.00;9.50;;;;;12.71;81.56;100513.28;146606;613;48017;-70
2024/03/01 14:15:36;;;;;;;;;8.00;7.00;;;;;12.62;80.95;100502.50;146616;674;46020;-69
2024/03/01 14:18:30;;;;;;;;;6.00;4.75;;;;;12.51;81.15;100490.78;146612;672;46017;-69
2024/03/01 14:21:24;;;;;;;;;7.75;6.25;;;;;12.54;81.24;100501.31;146618;619;46020;-70
2024/03/01 14:24:25;;;;;;;;;17.75;15.00;;;;;11.92;82.21;100400.06;146609;565;46016;-70
2024/03/01 14:27:27;;;;;;;;;20.00;17.75;;;;;12.50;80.87;100500.31;146606;580;46021;-70
2024/03/01 14:30:29;;;;;;;;;10.25;10.25;;;;;12.51;80.01;100495.97;146606;726;46012;-71
2024/03/01 14:33:27;;;;;;;;;6.25;5.25;;;;;12.58;79.98;100504.06;146607;570;47010;-69
2024/03/01 14:36:50;;;;;;;;;11.75;10.75;;;;;12.61;82.09;100511.13;146612;694;46012;-70
2024/03/01 14:39:51;;;;;;;;;7.25;4.25;;;;;12.52;84.93;100503.81;146611;679;46010;-70